sensor_id;sensor_type;location;lat;lon;timestamp;temperature;humidity
52725;DHT22;38621;52.830;6.914;2022-10-16T00:00:36;13.10;99.90
52725;DHT22;38621;52.830;6.914;2022-10-16T00:03:03;13.10;99.90
52725;DHT22;38621;52.830;6.914;2022-10-16T00:05:29;13.10;99.90
52725;DHT22;38621;52.830;6.914;2022-10-16T00:07:55;13.10;99.90
52725;DHT22;38621;52.830;6.914;2022-10-16T00:10:21;13.10;99.90
52725;DHT22;38621;52.830;6.914;2022-10-16T00:12:46;13.00;99.90
52725;DHT22;38621;52.830;6.914;2022-10-16T00:15:12;13.10;99.90
52725;DHT22;38621;52.830;6.914;2022-10-16T00:17:38;13.10;99.90
52725;DHT22;38621;52.830;6.914;2022-10-16T00:20:04;13.10;99.90
52725;DHT22;38621;52.830;6.914;2022-10-16T00:22:30;13.10;99.90
52725;DHT22;38621;52.830;6.914;2022-10-16T00:24:56;13.10;99.90
52725;DHT22;38621;52.830;6.914;2022-10-16T00:27:22;13.10;99.90
52725;DHT22;38621;52.830;6.914;2022-10-16T00:29:51;13.10;99.90
52725;DHT22;38621;52.830;6.914;2022-10-16T00:32:18;13.10;99.90
52725;DHT22;38621;52.830;6.914;2022-10-16T00:34:44;13.10;99.90
52725;DHT22;38621;52.830;6.914;2022-10-16T00:37:11;13.10;99.90
52725;DHT22;38621;52.830;6.914;2022-10-16T00:39:37;13.10;99.90
52725;DHT22;38621;52.830;6.914;2022-10-16T00:42:02;13.10;99.90
52725;DHT22;38621;52.830;6.914;2022-10-16T00:44:49;13.10;99.90
52725;DHT22;38621;52.830;6.914;2022-10-16T00:50:16;13.10;99.90
52725;DHT22;38621;52.830;6.914;2022-10-16T00:52:47;13.00;99.90
52725;DHT22;38621;52.830;6.914;2022-10-16T00:55:14;13.00;99.90
52725;DHT22;38621;52.830;6.914;2022-10-16T00:57:40;13.00;99.90
52725;DHT22;38621;52.830;6.914;2022-10-16T01:00:09;13.00;99.90
52725;DHT22;38621;52.830;6.914;2022-10-16T01:02:35;12.90;99.90
52725;DHT22;38621;52.830;6.914;2022-10-16T01:05:02;12.80;99.90
52725;DHT22;38621;52.830;6.914;2022-10-16T01:18:00;12.80;99.90
52725;DHT22;38621;52.830;6.914;2022-10-16T01:20:50;12.80;99.90
52725;DHT22;38621;52.830;6.914;2022-10-16T01:23:47;12.80;99.90
52725;DHT22;38621;52.830;6.914;2022-10-16T01:31:47;12.90;99.90
52725;DHT22;38621;52.830;6.914;2022-10-16T01:34:21;12.90;99.90
52725;DHT22;38621;52.830;6.914;2022-10-16T01:36:55;12.90;99.90
52725;DHT22;38621;52.830;6.914;2022-10-16T01:39:26;12.90;99.90
52725;DHT22;38621;52.830;6.914;2022-10-16T01:42:14;13.00;99.90
52725;DHT22;38621;52.830;6.914;2022-10-16T01:44:43;12.90;99.90
52725;DHT22;38621;52.830;6.914;2022-10-16T01:47:13;12.90;99.90
52725;DHT22;38621;52.830;6.914;2022-10-16T01:49:41;12.90;99.90
52725;DHT22;38621;52.830;6.914;2022-10-16T01:52:15;12.90;99.90
52725;DHT22;38621;52.830;6.914;2022-10-16T01:54:46;12.90;99.90
52725;DHT22;38621;52.830;6.914;2022-10-16T01:57:14;12.80;99.90
52725;DHT22;38621;52.830;6.914;2022-10-16T01:59:46;12.80;99.90
52725;DHT22;38621;52.830;6.914;2022-10-16T02:02:15;12.90;99.90
52725;DHT22;38621;52.830;6.914;2022-10-16T02:04:49;12.80;99.90
52725;DHT22;38621;52.830;6.914;2022-10-16T02:07:18;12.80;99.90
52725;DHT22;38621;52.830;6.914;2022-10-16T02:09:44;12.80;99.90
52725;DHT22;38621;52.830;6.914;2022-10-16T02:12:15;12.80;99.90
52725;DHT22;38621;52.830;6.914;2022-10-16T02:14:42;12.80;99.90
52725;DHT22;38621;52.830;6.914;2022-10-16T02:17:16;12.90;99.90
52725;DHT22;38621;52.830;6.914;2022-10-16T02:19:44;12.90;99.90
52725;DHT22;38621;52.830;6.914;2022-10-16T02:22:26;13.00;99.90
52725;DHT22;38621;52.830;6.914;2022-10-16T02:25:13;13.00;99.90
52725;DHT22;38621;52.830;6.914;2022-10-16T02:28:08;13.00;99.90
52725;DHT22;38621;52.830;6.914;2022-10-16T02:30:49;13.00;99.90
52725;DHT22;38621;52.830;6.914;2022-10-16T02:33:16;13.10;99.90
52725;DHT22;38621;52.830;6.914;2022-10-16T02:35:44;13.10;99.90
52725;DHT22;38621;52.830;6.914;2022-10-16T02:38:11;13.10;99.90
52725;DHT22;38621;52.830;6.914;2022-10-16T02:40:38;13.10;99.90
52725;DHT22;38621;52.830;6.914;2022-10-16T02:43:05;13.10;99.90
52725;DHT22;38621;52.830;6.914;2022-10-16T02:45:31;13.00;99.90
52725;DHT22;38621;52.830;6.914;2022-10-16T02:47:57;13.00;99.90
52725;DHT22;38621;52.830;6.914;2022-10-16T02:50:22;13.00;99.90
52725;DHT22;38621;52.830;6.914;2022-10-16T02:52:49;13.00;99.90
52725;DHT22;38621;52.830;6.914;2022-10-16T02:55:15;13.00;99.90
52725;DHT22;38621;52.830;6.914;2022-10-16T02:57:41;13.00;99.90
52725;DHT22;38621;52.830;6.914;2022-10-16T03:00:09;13.00;99.90
52725;DHT22;38621;52.830;6.914;2022-10-16T03:02:35;13.00;99.90
52725;DHT22;38621;52.830;6.914;2022-10-16T03:05:00;13.10;99.90
52725;DHT22;38621;52.830;6.914;2022-10-16T03:07:26;13.10;99.90
52725;DHT22;38621;52.830;6.914;2022-10-16T03:09:52;13.10;99.90
52725;DHT22;38621;52.830;6.914;2022-10-16T03:12:17;13.10;99.90
52725;DHT22;38621;52.830;6.914;2022-10-16T03:14:43;13.20;99.90
52725;DHT22;38621;52.830;6.914;2022-10-16T03:17:09;13.10;99.90
52725;DHT22;38621;52.830;6.914;2022-10-16T03:19:34;13.20;99.90
52725;DHT22;38621;52.830;6.914;2022-10-16T03:22:01;13.20;99.90
52725;DHT22;38621;52.830;6.914;2022-10-16T03:24:27;13.20;99.90
52725;DHT22;38621;52.830;6.914;2022-10-16T03:26:53;13.30;99.90
52725;DHT22;38621;52.830;6.914;2022-10-16T03:29:18;13.30;99.90
52725;DHT22;38621;52.830;6.914;2022-10-16T03:31:44;13.20;99.90
52725;DHT22;38621;52.830;6.914;2022-10-16T03:34:09;13.20;99.90
52725;DHT22;38621;52.830;6.914;2022-10-16T03:36:35;13.20;99.90
52725;DHT22;38621;52.830;6.914;2022-10-16T03:39:01;13.30;99.90
52725;DHT22;38621;52.830;6.914;2022-10-16T03:41:26;13.30;99.90
52725;DHT22;38621;52.830;6.914;2022-10-16T03:43:52;13.30;99.90
52725;DHT22;38621;52.830;6.914;2022-10-16T03:46:18;13.30;99.90
52725;DHT22;38621;52.830;6.914;2022-10-16T03:48:43;13.20;99.90
52725;DHT22;38621;52.830;6.914;2022-10-16T03:51:09;13.30;99.90
52725;DHT22;38621;52.830;6.914;2022-10-16T03:53:35;13.30;99.90
52725;DHT22;38621;52.830;6.914;2022-10-16T03:56:00;13.30;99.90
52725;DHT22;38621;52.830;6.914;2022-10-16T03:58:26;13.30;99.90
52725;DHT22;38621;52.830;6.914;2022-10-16T04:00:52;13.20;99.90
52725;DHT22;38621;52.830;6.914;2022-10-16T04:03:17;13.30;99.90
52725;DHT22;38621;52.830;6.914;2022-10-16T04:05:44;13.30;99.90
52725;DHT22;38621;52.830;6.914;2022-10-16T04:08:10;13.20;99.90
52725;DHT22;38621;52.830;6.914;2022-10-16T04:10:36;13.20;99.90
52725;DHT22;38621;52.830;6.914;2022-10-16T04:13:01;13.20;99.90
52725;DHT22;38621;52.830;6.914;2022-10-16T04:15:27;13.20;99.90
52725;DHT22;38621;52.830;6.914;2022-10-16T04:17:53;13.10;99.90
52725;DHT22;38621;52.830;6.914;2022-10-16T04:20:19;13.10;99.90
52725;DHT22;38621;52.830;6.914;2022-10-16T04:22:45;13.10;99.90
52725;DHT22;38621;52.830;6.914;2022-10-16T04:25:11;13.10;99.90
52725;DHT22;38621;52.830;6.914;2022-10-16T04:27:37;13.10;99.90
52725;DHT22;38621;52.830;6.914;2022-10-16T04:30:04;13.10;99.90
52725;DHT22;38621;52.830;6.914;2022-10-16T04:32:30;13.10;99.90
52725;DHT22;38621;52.830;6.914;2022-10-16T04:34:56;13.10;99.90
52725;DHT22;38621;52.830;6.914;2022-10-16T04:37:25;13.10;99.90
52725;DHT22;38621;52.830;6.914;2022-10-16T04:39:52;13.00;99.90
52725;DHT22;38621;52.830;6.914;2022-10-16T04:42:18;12.90;99.90
52725;DHT22;38621;52.830;6.914;2022-10-16T04:44:44;12.90;99.90
52725;DHT22;38621;52.830;6.914;2022-10-16T04:47:09;12.90;99.90
52725;DHT22;38621;52.830;6.914;2022-10-16T04:49:35;12.90;99.90
52725;DHT22;38621;52.830;6.914;2022-10-16T04:52:00;12.90;99.90
52725;DHT22;38621;52.830;6.914;2022-10-16T04:54:26;12.90;99.90
52725;DHT22;38621;52.830;6.914;2022-10-16T04:56:52;13.00;99.90
52725;DHT22;38621;52.830;6.914;2022-10-16T04:59:19;12.90;99.90
52725;DHT22;38621;52.830;6.914;2022-10-16T05:01:45;12.90;99.90
52725;DHT22;38621;52.830;6.914;2022-10-16T05:04:11;12.80;99.90
52725;DHT22;38621;52.830;6.914;2022-10-16T05:06:37;12.90;99.90
52725;DHT22;38621;52.830;6.914;2022-10-16T05:09:04;12.80;99.90
52725;DHT22;38621;52.830;6.914;2022-10-16T05:11:31;12.90;99.90
52725;DHT22;38621;52.830;6.914;2022-10-16T05:13:57;12.90;99.90
52725;DHT22;38621;52.830;6.914;2022-10-16T05:16:22;12.90;99.90
52725;DHT22;38621;52.830;6.914;2022-10-16T05:18:48;12.90;99.90
52725;DHT22;38621;52.830;6.914;2022-10-16T05:21:14;12.80;99.90
52725;DHT22;38621;52.830;6.914;2022-10-16T05:23:40;12.80;99.90
52725;DHT22;38621;52.830;6.914;2022-10-16T05:26:05;12.80;99.90
52725;DHT22;38621;52.830;6.914;2022-10-16T05:28:31;12.80;99.90
52725;DHT22;38621;52.830;6.914;2022-10-16T05:30:57;12.80;99.90
52725;DHT22;38621;52.830;6.914;2022-10-16T05:33:25;12.80;99.90
52725;DHT22;38621;52.830;6.914;2022-10-16T05:35:51;12.70;99.90
52725;DHT22;38621;52.830;6.914;2022-10-16T05:38:17;12.70;99.90
52725;DHT22;38621;52.830;6.914;2022-10-16T05:40:43;12.70;99.90
52725;DHT22;38621;52.830;6.914;2022-10-16T05:43:09;12.70;99.90
52725;DHT22;38621;52.830;6.914;2022-10-16T05:45:35;12.70;99.90
52725;DHT22;38621;52.830;6.914;2022-10-16T05:48:00;12.70;99.90
52725;DHT22;38621;52.830;6.914;2022-10-16T05:50:27;12.60;99.90
52725;DHT22;38621;52.830;6.914;2022-10-16T05:52:52;12.60;99.90
52725;DHT22;38621;52.830;6.914;2022-10-16T05:55:18;12.60;99.90
52725;DHT22;38621;52.830;6.914;2022-10-16T05:57:44;12.60;99.90
52725;DHT22;38621;52.830;6.914;2022-10-16T06:00:10;12.60;99.90
52725;DHT22;38621;52.830;6.914;2022-10-16T06:02:36;12.60;99.90
52725;DHT22;38621;52.830;6.914;2022-10-16T06:05:01;12.70;99.90
52725;DHT22;38621;52.830;6.914;2022-10-16T06:07:27;12.60;99.90
52725;DHT22;38621;52.830;6.914;2022-10-16T06:09:53;12.60;99.90
52725;DHT22;38621;52.830;6.914;2022-10-16T06:12:19;12.60;99.90
52725;DHT22;38621;52.830;6.914;2022-10-16T06:14:45;12.70;99.90
52725;DHT22;38621;52.830;6.914;2022-10-16T06:17:14;12.70;99.90
52725;DHT22;38621;52.830;6.914;2022-10-16T06:19:40;12.60;99.90
52725;DHT22;38621;52.830;6.914;2022-10-16T06:22:06;12.70;99.90
52725;DHT22;38621;52.830;6.914;2022-10-16T06:24:32;12.70;99.90
52725;DHT22;38621;52.830;6.914;2022-10-16T06:26:58;12.70;99.90
52725;DHT22;38621;52.830;6.914;2022-10-16T06:29:23;12.70;99.90
52725;DHT22;38621;52.830;6.914;2022-10-16T06:31:49;12.80;99.90
52725;DHT22;38621;52.830;6.914;2022-10-16T06:34:15;12.80;99.90
52725;DHT22;38621;52.830;6.914;2022-10-16T06:36:40;12.90;99.90
52725;DHT22;38621;52.830;6.914;2022-10-16T06:39:06;12.90;99.90
52725;DHT22;38621;52.830;6.914;2022-10-16T06:41:35;12.90;99.90
52725;DHT22;38621;52.830;6.914;2022-10-16T06:44:01;13.00;99.90
52725;DHT22;38621;52.830;6.914;2022-10-16T06:46:27;13.00;99.90
52725;DHT22;38621;52.830;6.914;2022-10-16T06:48:53;13.00;99.90
52725;DHT22;38621;52.830;6.914;2022-10-16T06:51:21;13.00;99.90
52725;DHT22;38621;52.830;6.914;2022-10-16T06:53:52;13.10;99.90
52725;DHT22;38621;52.830;6.914;2022-10-16T06:56:24;13.10;99.90
52725;DHT22;38621;52.830;6.914;2022-10-16T06:58:51;13.10;99.90
52725;DHT22;38621;52.830;6.914;2022-10-16T07:01:18;13.10;99.90
52725;DHT22;38621;52.830;6.914;2022-10-16T07:03:45;13.10;99.90
52725;DHT22;38621;52.830;6.914;2022-10-16T07:06:16;13.10;99.90
52725;DHT22;38621;52.830;6.914;2022-10-16T07:08:44;13.10;99.90
52725;DHT22;38621;52.830;6.914;2022-10-16T07:11:12;13.20;99.90
52725;DHT22;38621;52.830;6.914;2022-10-16T07:13:40;13.20;99.90
52725;DHT22;38621;52.830;6.914;2022-10-16T07:18:32;13.20;99.90
52725;DHT22;38621;52.830;6.914;2022-10-16T07:21:15;13.20;99.90
52725;DHT22;38621;52.830;6.914;2022-10-16T07:23:41;13.20;99.90
52725;DHT22;38621;52.830;6.914;2022-10-16T07:26:09;13.30;99.90
52725;DHT22;38621;52.830;6.914;2022-10-16T07:28:36;13.30;99.90
52725;DHT22;38621;52.830;6.914;2022-10-16T07:31:03;13.30;99.90
52725;DHT22;38621;52.830;6.914;2022-10-16T07:33:30;13.30;99.90
52725;DHT22;38621;52.830;6.914;2022-10-16T07:35:56;13.30;99.90
52725;DHT22;38621;52.830;6.914;2022-10-16T07:38:22;13.30;99.90
52725;DHT22;38621;52.830;6.914;2022-10-16T07:40:48;13.30;99.90
52725;DHT22;38621;52.830;6.914;2022-10-16T07:43:14;13.40;99.90
52725;DHT22;38621;52.830;6.914;2022-10-16T07:45:47;13.40;99.90
52725;DHT22;38621;52.830;6.914;2022-10-16T07:48:15;13.50;99.90
52725;DHT22;38621;52.830;6.914;2022-10-16T07:50:41;13.50;99.90
52725;DHT22;38621;52.830;6.914;2022-10-16T07:53:07;13.50;99.90
52725;DHT22;38621;52.830;6.914;2022-10-16T07:55:33;13.60;99.90
52725;DHT22;38621;52.830;6.914;2022-10-16T07:57:58;13.60;99.90
52725;DHT22;38621;52.830;6.914;2022-10-16T08:00:24;13.60;99.90
52725;DHT22;38621;52.830;6.914;2022-10-16T08:02:50;13.70;99.90
52725;DHT22;38621;52.830;6.914;2022-10-16T08:05:15;13.70;99.90
52725;DHT22;38621;52.830;6.914;2022-10-16T08:07:41;13.70;99.90
52725;DHT22;38621;52.830;6.914;2022-10-16T08:10:21;13.70;99.90
52725;DHT22;38621;52.830;6.914;2022-10-16T08:12:47;13.80;99.90
52725;DHT22;38621;52.830;6.914;2022-10-16T08:15:13;13.80;99.90
52725;DHT22;38621;52.830;6.914;2022-10-16T08:17:39;13.90;99.90
52725;DHT22;38621;52.830;6.914;2022-10-16T08:20:04;13.90;99.90
52725;DHT22;38621;52.830;6.914;2022-10-16T08:22:30;14.00;99.90
52725;DHT22;38621;52.830;6.914;2022-10-16T08:24:56;14.00;99.90
52725;DHT22;38621;52.830;6.914;2022-10-16T08:27:22;14.10;99.90
52725;DHT22;38621;52.830;6.914;2022-10-16T08:29:51;14.00;99.90
52725;DHT22;38621;52.830;6.914;2022-10-16T08:32:16;14.00;99.90
52725;DHT22;38621;52.830;6.914;2022-10-16T08:34:42;14.00;99.90
52725;DHT22;38621;52.830;6.914;2022-10-16T08:37:08;14.10;99.90
52725;DHT22;38621;52.830;6.914;2022-10-16T08:39:36;14.20;99.90
52725;DHT22;38621;52.830;6.914;2022-10-16T08:50:24;14.40;99.90
52725;DHT22;38621;52.830;6.914;2022-10-16T08:52:50;14.50;99.90
52725;DHT22;38621;52.830;6.914;2022-10-16T08:55:42;14.50;99.90
52725;DHT22;38621;52.830;6.914;2022-10-16T08:58:20;14.50;99.90
52725;DHT22;38621;52.830;6.914;2022-10-16T09:00:49;14.60;99.90
52725;DHT22;38621;52.830;6.914;2022-10-16T09:06:17;14.70;99.90
52725;DHT22;38621;52.830;6.914;2022-10-16T09:11:50;14.90;99.90
52725;DHT22;38621;52.830;6.914;2022-10-16T09:19:54;15.10;99.90
52725;DHT22;38621;52.830;6.914;2022-10-16T09:22:26;15.20;99.90
52725;DHT22;38621;52.830;6.914;2022-10-16T09:24:55;15.30;99.90
52725;DHT22;38621;52.830;6.914;2022-10-16T09:27:23;15.30;99.90
52725;DHT22;38621;52.830;6.914;2022-10-16T09:29:49;15.40;99.90
52725;DHT22;38621;52.830;6.914;2022-10-16T09:32:19;15.40;99.90
52725;DHT22;38621;52.830;6.914;2022-10-16T09:34:51;15.50;99.90
52725;DHT22;38621;52.830;6.914;2022-10-16T09:37:20;15.60;99.90
52725;DHT22;38621;52.830;6.914;2022-10-16T09:39:48;15.70;99.90
52725;DHT22;38621;52.830;6.914;2022-10-16T09:42:20;15.90;99.90
52725;DHT22;38621;52.830;6.914;2022-10-16T09:44:49;16.10;99.90
52725;DHT22;38621;52.830;6.914;2022-10-16T09:47:19;16.20;99.90
52725;DHT22;38621;52.830;6.914;2022-10-16T09:49:59;16.30;99.90
52725;DHT22;38621;52.830;6.914;2022-10-16T09:52:28;16.40;99.90
52725;DHT22;38621;52.830;6.914;2022-10-16T09:54:58;16.50;99.90
52725;DHT22;38621;52.830;6.914;2022-10-16T09:57:25;16.50;99.90
52725;DHT22;38621;52.830;6.914;2022-10-16T09:59:53;16.50;99.90
52725;DHT22;38621;52.830;6.914;2022-10-16T10:02:30;16.50;99.90
52725;DHT22;38621;52.830;6.914;2022-10-16T10:04:57;16.40;99.90
52725;DHT22;38621;52.830;6.914;2022-10-16T10:07:27;16.40;99.90
52725;DHT22;38621;52.830;6.914;2022-10-16T10:09:54;16.40;99.90
52725;DHT22;38621;52.830;6.914;2022-10-16T10:12:25;16.40;99.90
52725;DHT22;38621;52.830;6.914;2022-10-16T10:14:54;16.40;99.90
52725;DHT22;38621;52.830;6.914;2022-10-16T10:17:26;16.40;99.90
52725;DHT22;38621;52.830;6.914;2022-10-16T10:22:43;16.50;99.90
52725;DHT22;38621;52.830;6.914;2022-10-16T10:35:18;16.50;99.90
52725;DHT22;38621;52.830;6.914;2022-10-16T10:40:37;16.50;99.90
52725;DHT22;38621;52.830;6.914;2022-10-16T10:46:38;16.50;99.90
52725;DHT22;38621;52.830;6.914;2022-10-16T10:49:20;16.30;99.90
52725;DHT22;38621;52.830;6.914;2022-10-16T10:57:30;16.50;99.90
52725;DHT22;38621;52.830;6.914;2022-10-16T11:02:37;16.50;99.90
52725;DHT22;38621;52.830;6.914;2022-10-16T11:05:24;16.70;99.90
52725;DHT22;38621;52.830;6.914;2022-10-16T11:07:58;16.60;99.90
52725;DHT22;38621;52.830;6.914;2022-10-16T11:10:54;16.30;99.90
52725;DHT22;38621;52.830;6.914;2022-10-16T11:13:34;16.10;99.90
52725;DHT22;38621;52.830;6.914;2022-10-16T11:16:21;16.00;99.90
52725;DHT22;38621;52.830;6.914;2022-10-16T11:18:57;16.00;99.90
52725;DHT22;38621;52.830;6.914;2022-10-16T11:21:26;16.00;99.90
52725;DHT22;38621;52.830;6.914;2022-10-16T11:24:04;16.00;99.90
52725;DHT22;38621;52.830;6.914;2022-10-16T11:26:36;16.00;99.90
52725;DHT22;38621;52.830;6.914;2022-10-16T11:29:10;16.00;99.90
52725;DHT22;38621;52.830;6.914;2022-10-16T11:31:42;16.10;99.90
52725;DHT22;38621;52.830;6.914;2022-10-16T11:34:25;16.40;99.90
52725;DHT22;38621;52.830;6.914;2022-10-16T11:37:20;16.50;99.90
52725;DHT22;38621;52.830;6.914;2022-10-16T11:39:47;16.80;99.90
52725;DHT22;38621;52.830;6.914;2022-10-16T11:42:37;16.80;99.90
52725;DHT22;38621;52.830;6.914;2022-10-16T11:45:45;16.80;99.90
52725;DHT22;38621;52.830;6.914;2022-10-16T11:48:35;16.80;99.90
52725;DHT22;38621;52.830;6.914;2022-10-16T11:51:14;16.70;99.90
52725;DHT22;38621;52.830;6.914;2022-10-16T11:56:06;16.40;99.90
52725;DHT22;38621;52.830;6.914;2022-10-16T11:58:41;16.40;99.90
52725;DHT22;38621;52.830;6.914;2022-10-16T12:01:38;16.50;99.90
52725;DHT22;38621;52.830;6.914;2022-10-16T12:04:26;16.60;99.90
52725;DHT22;38621;52.830;6.914;2022-10-16T12:07:06;16.40;99.90
52725;DHT22;38621;52.830;6.914;2022-10-16T12:09:36;16.30;99.90
52725;DHT22;38621;52.830;6.914;2022-10-16T12:12:02;16.20;99.90
52725;DHT22;38621;52.830;6.914;2022-10-16T12:17:03;16.10;99.90
52725;DHT22;38621;52.830;6.914;2022-10-16T12:19:32;16.10;99.90
52725;DHT22;38621;52.830;6.914;2022-10-16T12:22:01;16.00;99.90
52725;DHT22;38621;52.830;6.914;2022-10-16T12:26:55;16.20;99.90
52725;DHT22;38621;52.830;6.914;2022-10-16T12:31:47;16.20;99.90
52725;DHT22;38621;52.830;6.914;2022-10-16T12:36:49;16.60;99.90
52725;DHT22;38621;52.830;6.914;2022-10-16T12:39:24;16.80;99.90
52725;DHT22;38621;52.830;6.914;2022-10-16T12:42:05;17.00;99.90
52725;DHT22;38621;52.830;6.914;2022-10-16T12:44:34;17.10;99.90
52725;DHT22;38621;52.830;6.914;2022-10-16T12:47:00;17.20;99.90
52725;DHT22;38621;52.830;6.914;2022-10-16T12:49:30;17.10;99.90
52725;DHT22;38621;52.830;6.914;2022-10-16T12:51:56;17.00;99.90
52725;DHT22;38621;52.830;6.914;2022-10-16T12:54:27;16.80;99.90
52725;DHT22;38621;52.830;6.914;2022-10-16T13:18:22;17.10;99.90
52725;DHT22;38621;52.830;6.914;2022-10-16T13:21:10;17.10;99.90
52725;DHT22;38621;52.830;6.914;2022-10-16T13:29:09;16.90;99.90
52725;DHT22;38621;52.830;6.914;2022-10-16T13:31:38;16.80;99.90
52725;DHT22;38621;52.830;6.914;2022-10-16T13:34:05;16.80;99.90
52725;DHT22;38621;52.830;6.914;2022-10-16T13:36:52;16.80;99.90
52725;DHT22;38621;52.830;6.914;2022-10-16T13:42:12;16.60;99.90
52725;DHT22;38621;52.830;6.914;2022-10-16T13:44:50;16.60;99.90
52725;DHT22;38621;52.830;6.914;2022-10-16T13:47:19;16.70;99.90
52725;DHT22;38621;52.830;6.914;2022-10-16T13:49:45;16.90;99.90
52725;DHT22;38621;52.830;6.914;2022-10-16T13:52:20;17.00;99.90
52725;DHT22;38621;52.830;6.914;2022-10-16T13:54:46;17.10;99.90
52725;DHT22;38621;52.830;6.914;2022-10-16T13:57:15;17.10;99.90
52725;DHT22;38621;52.830;6.914;2022-10-16T13:59:41;17.00;99.90
52725;DHT22;38621;52.830;6.914;2022-10-16T14:02:33;16.80;99.90
52725;DHT22;38621;52.830;6.914;2022-10-16T14:05:01;16.60;99.90
52725;DHT22;38621;52.830;6.914;2022-10-16T14:07:30;16.50;99.90
52725;DHT22;38621;52.830;6.914;2022-10-16T14:10:00;16.60;99.90
52725;DHT22;38621;52.830;6.914;2022-10-16T14:12:26;16.70;99.90
52725;DHT22;38621;52.830;6.914;2022-10-16T14:14:53;16.70;99.90
52725;DHT22;38621;52.830;6.914;2022-10-16T14:17:22;16.70;99.90
52725;DHT22;38621;52.830;6.914;2022-10-16T14:19:53;16.70;99.90
52725;DHT22;38621;52.830;6.914;2022-10-16T14:25:01;16.60;99.90
52725;DHT22;38621;52.830;6.914;2022-10-16T14:27:34;16.60;99.90
52725;DHT22;38621;52.830;6.914;2022-10-16T14:30:16;16.50;99.90
52725;DHT22;38621;52.830;6.914;2022-10-16T14:32:56;16.50;99.90
52725;DHT22;38621;52.830;6.914;2022-10-16T14:37:56;16.40;99.90
52725;DHT22;38621;52.830;6.914;2022-10-16T14:40:45;16.30;99.90
52725;DHT22;38621;52.830;6.914;2022-10-16T14:43:22;16.40;99.90
52725;DHT22;38621;52.830;6.914;2022-10-16T14:45:53;16.30;99.90
52725;DHT22;38621;52.830;6.914;2022-10-16T14:48:20;16.20;99.90
52725;DHT22;38621;52.830;6.914;2022-10-16T14:50:46;16.20;99.90
52725;DHT22;38621;52.830;6.914;2022-10-16T14:53:12;16.20;99.90
52725;DHT22;38621;52.830;6.914;2022-10-16T14:55:39;16.10;99.90
52725;DHT22;38621;52.830;6.914;2022-10-16T14:58:07;16.10;99.90
52725;DHT22;38621;52.830;6.914;2022-10-16T15:00:35;16.00;99.90
52725;DHT22;38621;52.830;6.914;2022-10-16T15:03:01;16.00;99.90
52725;DHT22;38621;52.830;6.914;2022-10-16T15:05:27;16.00;99.90
52725;DHT22;38621;52.830;6.914;2022-10-16T15:07:54;16.00;99.90
52725;DHT22;38621;52.830;6.914;2022-10-16T15:10:21;15.90;99.90
52725;DHT22;38621;52.830;6.914;2022-10-16T15:12:48;15.90;99.90
52725;DHT22;38621;52.830;6.914;2022-10-16T15:17:50;15.90;99.90
52725;DHT22;38621;52.830;6.914;2022-10-16T15:20:22;15.90;99.90
52725;DHT22;38621;52.830;6.914;2022-10-16T15:22:48;15.80;99.90
52725;DHT22;38621;52.830;6.914;2022-10-16T15:25:31;15.70;99.90
52725;DHT22;38621;52.830;6.914;2022-10-16T15:27:58;15.70;99.90
52725;DHT22;38621;52.830;6.914;2022-10-16T15:30:24;15.70;99.90
52725;DHT22;38621;52.830;6.914;2022-10-16T15:32:50;15.70;99.90
52725;DHT22;38621;52.830;6.914;2022-10-16T15:35:16;15.70;99.90
52725;DHT22;38621;52.830;6.914;2022-10-16T15:37:42;15.70;99.90
52725;DHT22;38621;52.830;6.914;2022-10-16T15:40:09;15.60;99.90
52725;DHT22;38621;52.830;6.914;2022-10-16T15:42:35;15.60;99.90
52725;DHT22;38621;52.830;6.914;2022-10-16T15:45:01;15.60;99.90
52725;DHT22;38621;52.830;6.914;2022-10-16T15:47:27;15.50;99.90
52725;DHT22;38621;52.830;6.914;2022-10-16T15:49:52;15.50;99.90
52725;DHT22;38621;52.830;6.914;2022-10-16T15:52:18;15.50;99.90
52725;DHT22;38621;52.830;6.914;2022-10-16T15:54:43;15.40;99.90
52725;DHT22;38621;52.830;6.914;2022-10-16T15:57:09;15.40;99.90
52725;DHT22;38621;52.830;6.914;2022-10-16T15:59:35;15.40;99.90
52725;DHT22;38621;52.830;6.914;2022-10-16T16:02:00;15.40;99.90
52725;DHT22;38621;52.830;6.914;2022-10-16T16:04:26;15.30;99.90
52725;DHT22;38621;52.830;6.914;2022-10-16T16:06:54;15.20;99.90
52725;DHT22;38621;52.830;6.914;2022-10-16T16:09:20;15.20;99.90
52725;DHT22;38621;52.830;6.914;2022-10-16T16:11:45;15.10;99.90
52725;DHT22;38621;52.830;6.914;2022-10-16T16:14:13;15.10;99.90
52725;DHT22;38621;52.830;6.914;2022-10-16T16:16:39;15.10;99.90
52725;DHT22;38621;52.830;6.914;2022-10-16T16:19:05;15.10;99.90
52725;DHT22;38621;52.830;6.914;2022-10-16T16:21:33;15.00;99.90
52725;DHT22;38621;52.830;6.914;2022-10-16T16:23:59;14.90;99.90
52725;DHT22;38621;52.830;6.914;2022-10-16T16:26:27;14.90;99.90
52725;DHT22;38621;52.830;6.914;2022-10-16T16:28:57;14.80;99.90
52725;DHT22;38621;52.830;6.914;2022-10-16T16:31:27;14.70;99.90
52725;DHT22;38621;52.830;6.914;2022-10-16T16:33:54;14.60;99.90
52725;DHT22;38621;52.830;6.914;2022-10-16T16:36:20;14.50;99.90
52725;DHT22;38621;52.830;6.914;2022-10-16T16:38:46;14.40;99.90
52725;DHT22;38621;52.830;6.914;2022-10-16T16:41:23;14.30;99.90
52725;DHT22;38621;52.830;6.914;2022-10-16T16:43:50;14.20;99.90
52725;DHT22;38621;52.830;6.914;2022-10-16T16:46:17;14.00;99.90
52725;DHT22;38621;52.830;6.914;2022-10-16T16:48:43;13.90;99.90
52725;DHT22;38621;52.830;6.914;2022-10-16T16:51:11;13.90;99.90
52725;DHT22;38621;52.830;6.914;2022-10-16T16:53:40;13.90;99.90
52725;DHT22;38621;52.830;6.914;2022-10-16T16:56:07;13.90;99.90
52725;DHT22;38621;52.830;6.914;2022-10-16T16:58:33;13.80;99.90
52725;DHT22;38621;52.830;6.914;2022-10-16T17:00:59;13.80;99.90
52725;DHT22;38621;52.830;6.914;2022-10-16T17:03:32;13.70;99.90
52725;DHT22;38621;52.830;6.914;2022-10-16T17:05:59;13.70;99.90
52725;DHT22;38621;52.830;6.914;2022-10-16T17:08:25;13.70;99.90
52725;DHT22;38621;52.830;6.914;2022-10-16T17:10:51;13.60;99.90
52725;DHT22;38621;52.830;6.914;2022-10-16T17:13:21;13.60;99.90
52725;DHT22;38621;52.830;6.914;2022-10-16T17:15:48;13.60;99.90
52725;DHT22;38621;52.830;6.914;2022-10-16T17:18:14;13.50;99.90
52725;DHT22;38621;52.830;6.914;2022-10-16T17:20:40;13.40;99.90
52725;DHT22;38621;52.830;6.914;2022-10-16T17:23:07;13.40;99.90
52725;DHT22;38621;52.830;6.914;2022-10-16T17:25:35;13.30;99.90
52725;DHT22;38621;52.830;6.914;2022-10-16T17:28:02;13.20;99.90
52725;DHT22;38621;52.830;6.914;2022-10-16T17:30:27;13.10;99.90
52725;DHT22;38621;52.830;6.914;2022-10-16T17:32:53;13.10;99.90
52725;DHT22;38621;52.830;6.914;2022-10-16T17:35:19;13.00;99.90
52725;DHT22;38621;52.830;6.914;2022-10-16T17:37:44;13.00;99.90
52725;DHT22;38621;52.830;6.914;2022-10-16T17:40:10;13.00;99.90